Time;durP1;ratioP1;P1;durP2;ratioP2;P2;SDS_P1;SDS_P2;PMS_P1;PMS_P2;Temp;Humidity;BMP_temperature;BMP_pressure;BME280_temperature;BME280_humidity;BME280_pressure;Samples;Min_cycle;Max_cycle;Signal;HPM_P1;HPM_P2
2024/01/11 00:01:55;;;;;;;;;31.75;24.00;;;;;-5.55;86.92;101326.59;113108;239;39126;-49
2024/01/11 00:04:33;;;;;;;;;29.75;23.00;;;;;-5.68;86.92;101314.56;113120;239;41055;-51
2024/01/11 00:07:11;;;;;;;;;38.50;26.00;;;;;-5.71;86.79;101304.88;113164;240;39568;-50
2024/01/11 00:09:50;;;;;;;;;38.00;27.00;;;;;-5.83;86.75;101305.90;113116;239;39907;-50
2024/01/11 00:12:29;;;;;;;;;28.50;20.50;;;;;-5.92;86.63;101301.23;113122;239;39872;-49
2024/01/11 00:15:05;;;;;;;;;39.00;27.00;;;;;-6.00;86.52;101307.48;113124;239;41364;-52
2024/01/11 00:17:40;;;;;;;;;37.00;27.00;;;;;-6.09;86.41;101319.98;113137;239;40726;-51
2024/01/11 00:20:20;;;;;;;;;40.50;26.75;;;;;-6.10;86.30;101325.27;113155;239;39001;-51
2024/01/11 00:22:54;;;;;;;;;40.25;26.00;;;;;-6.12;86.20;101323.61;113165;239;39574;-51
2024/01/11 00:25:32;;;;;;;;;39.50;28.50;;;;;-6.15;86.21;101316.00;113190;239;40131;-54
2024/01/11 00:28:09;;;;;;;;;32.00;23.00;;;;;-6.20;86.23;101314.11;113140;240;39892;-54
2024/01/11 00:30:44;;;;;;;;;35.00;23.75;;;;;-6.23;86.30;101309.52;113158;239;40608;-51
2024/01/11 00:33:21;;;;;;;;;44.50;28.50;;;;;-6.25;86.24;101312.39;113209;239;39214;-50
2024/01/11 00:35:55;;;;;;;;;45.00;32.00;;;;;-6.25;86.32;101316.58;113196;239;40259;-51
2024/01/11 00:38:31;;;;;;;;;36.75;26.25;;;;;-6.23;86.19;101310.57;113133;240;40186;-51
2024/01/11 00:41:07;;;;;;;;;42.00;29.00;;;;;-6.23;86.18;101301.78;113141;239;39779;-54
2024/01/11 00:43:46;;;;;;;;;33.33;22.33;;;;;-6.25;86.25;101300.85;113150;239;39068;-53
2024/01/11 00:46:23;;;;;;;;;33.00;23.33;;;;;-6.24;86.25;101315.33;113148;239;39642;-50
2024/01/11 00:48:59;;;;;;;;;37.00;26.00;;;;;-6.25;86.29;101334.14;113133;239;39563;-50
2024/01/11 00:51:33;;;;;;;;;36.00;24.67;;;;;-6.25;86.52;101341.84;113127;239;40663;-54
2024/01/11 00:54:08;;;;;;;;;30.50;23.00;;;;;-6.15;86.58;101334.59;112910;240;40299;-54
2024/01/11 00:56:46;;;;;;;;;38.00;25.75;;;;;-6.08;86.54;101310.13;113127;239;39376;-50
2024/01/11 00:59:22;;;;;;;;;37.00;23.00;;;;;-6.05;86.65;101298.59;113107;239;40932;-50
2024/01/11 01:02:01;;;;;;;;;32.25;24.00;;;;;-6.03;86.74;101286.94;113140;240;39578;-48
2024/01/11 01:04:38;;;;;;;;;36.00;24.00;;;;;-5.98;86.75;101290.09;113130;239;39714;-49
2024/01/11 01:07:15;;;;;;;;;31.33;23.00;;;;;-5.94;86.78;101312.35;113122;239;39534;-54
2024/01/11 01:09:50;;;;;;;;;31.25;23.00;;;;;-5.94;86.73;101310.23;113094;239;39363;-54
2024/01/11 01:12:25;;;;;;;;;39.25;26.75;;;;;-5.89;86.74;101294.96;113170;239;39627;-49
2024/01/11 01:14:59;;;;;;;;;33.75;24.00;;;;;-5.86;86.75;101288.52;113209;239;39307;-49
2024/01/11 01:17:34;;;;;;;;;35.00;25.00;;;;;-5.82;86.79;101280.76;113197;239;39618;-50
2024/01/11 01:20:10;;;;;;;;;31.25;22.00;;;;;-5.83;86.80;101281.33;113168;240;39365;-54
2024/01/11 01:22:45;;;;;;;;;32.50;23.50;;;;;-5.81;86.84;101285.98;113195;239;39390;-55
2024/01/11 01:25:21;;;;;;;;;34.00;24.00;;;;;-5.75;86.72;101293.11;113195;240;40523;-55
2024/01/11 01:27:59;;;;;;;;;33.75;25.50;;;;;-5.76;86.77;101291.58;113150;239;40619;-56
2024/01/11 01:30:33;;;;;;;;;37.50;26.25;;;;;-5.76;86.75;101317.70;113186;239;40722;-50
2024/01/11 01:33:10;;;;;;;;;36.00;26.00;;;;;-5.67;86.76;101309.40;113112;239;39414;-50
2024/01/11 01:35:47;;;;;;;;;30.50;23.00;;;;;-5.66;86.77;101296.89;113158;239;39243;-55
2024/01/11 01:38:22;;;;;;;;;33.00;23.25;;;;;-5.60;86.75;101270.54;113099;239;39409;-55
2024/01/11 01:40:58;;;;;;;;;41.50;26.00;;;;;-5.63;86.73;101264.33;113120;239;40713;-54
2024/01/11 01:43:37;;;;;;;;;35.67;25.00;;;;;-5.67;86.80;101284.15;113112;239;40587;-54
2024/01/11 01:46:18;;;;;;;;;31.33;22.00;;;;;-5.64;86.81;101283.86;113108;239;40585;-51
2024/01/11 01:48:55;;;;;;;;;32.00;22.67;;;;;-5.59;86.69;101271.52;113134;239;39336;-51
2024/01/11 01:51:32;;;;;;;;;38.00;27.00;;;;;-5.56;86.64;101285.77;113132;239;39551;-50
2024/01/11 01:54:07;;;;;;;;;34.00;24.50;;;;;-5.57;86.72;101280.04;113126;239;39515;-50
2024/01/11 01:56:42;;;;;;;;;33.33;24.00;;;;;-5.53;86.72;101286.51;113178;239;39960;-55
2024/01/11 01:59:19;;;;;;;;;33.50;23.00;;;;;-5.51;86.68;101289.27;113149;239;40746;-55
2024/01/11 02:01:53;;;;;;;;;37.00;23.00;;;;;-5.56;86.80;101292.78;113243;239;40649;-51
2024/01/11 02:04:30;;;;;;;;;37.75;25.25;;;;;-5.54;86.70;101278.48;113140;239;39337;-51
2024/01/11 02:07:07;;;;;;;;;32.00;23.50;;;;;-5.53;86.75;101295.67;113153;239;40395;-54
2024/01/11 02:09:44;;;;;;;;;32.00;21.00;;;;;-5.51;86.75;101289.41;113174;239;39926;-55
2024/01/11 02:12:22;;;;;;;;;35.00;24.00;;;;;-5.50;86.73;101268.67;113160;239;40820;-55
2024/01/11 02:15:03;;;;;;;;;31.75;24.00;;;;;-5.55;86.94;101265.55;113148;239;39264;-55
2024/01/11 02:17:44;;;;;;;;;32.75;24.00;;;;;-5.54;86.93;101275.85;113134;239;39430;-52
2024/01/11 02:20:19;;;;;;;;;31.75;23.00;;;;;-5.53;87.01;101277.23;113134;240;40584;-54
2024/01/11 02:23:03;;;;;;;;;26.00;19.00;;;;;-5.51;87.05;101260.29;113075;239;39689;-54
2024/01/11 02:25:39;;;;;;;;;39.50;28.50;;;;;-5.51;87.12;101265.02;113125;239;39585;-53
2024/01/11 02:28:15;;;;;;;;;33.33;23.33;;;;;-5.49;87.03;101277.05;113110;239;39718;-53
2024/01/11 02:30:51;;;;;;;;;32.00;21.33;;;;;-5.55;87.18;101263.99;113114;239;39568;-54
2024/01/11 02:33:29;;;;;;;;;28.50;20.00;;;;;-5.53;87.18;101257.23;113101;239;40859;-55
2024/01/11 02:36:05;;;;;;;;;43.00;29.25;;;;;-5.55;87.20;101259.44;113090;239;40366;-49
2024/01/11 02:38:42;;;;;;;;;37.33;26.33;;;;;-5.54;87.27;101244.10;113174;239;39103;-49
2024/01/11 02:41:19;;;;;;;;;33.75;23.75;;;;;-5.52;87.28;101246.64;113217;239;38988;-49
2024/01/11 02:43:58;;;;;;;;;33.00;23.25;;;;;-5.56;87.41;101250.86;113194;239;40042;-49
2024/01/11 02:46:33;;;;;;;;;35.00;24.25;;;;;-5.54;87.44;101246.04;113217;239;39671;-50
2024/01/11 02:49:07;;;;;;;;;30.67;22.00;;;;;-5.53;87.53;101257.57;113244;239;39069;-50
2024/01/11 02:51:45;;;;;;;;;38.00;26.00;;;;;-5.48;87.46;101254.20;113165;239;40879;-50
2024/01/11 02:54:24;;;;;;;;;37.50;23.75;;;;;-5.46;87.58;101254.80;113215;239;39700;-50
2024/01/11 02:57:00;;;;;;;;;32.50;21.00;;;;;-5.41;87.54;101255.45;113166;239;39738;-54
2024/01/11 02:59:40;;;;;;;;;29.75;21.25;;;;;-5.37;87.54;101258.98;113142;239;39903;-54
2024/01/11 03:02:18;;;;;;;;;29.50;21.25;;;;;-5.34;87.59;101250.42;113125;239;39281;-55
2024/01/11 03:04:55;;;;;;;;;34.00;24.00;;;;;-5.32;87.58;101240.52;113125;239;39327;-55
2024/01/11 03:07:36;;;;;;;;;37.00;21.00;;;;;-5.31;87.64;101228.16;113125;239;39766;-55
2024/01/11 03:10:11;;;;;;;;;30.25;22.00;;;;;-5.30;87.66;101223.55;113104;239;39453;-54
2024/01/11 03:12:46;;;;;;;;;30.50;21.50;;;;;-5.28;87.76;101234.19;112935;239;40606;-55
2024/01/11 03:15:23;;;;;;;;;30.50;22.50;;;;;-5.28;87.91;101229.09;113139;239;39585;-51
2024/01/11 03:18:01;;;;;;;;;26.25;17.00;;;;;-5.21;87.81;101224.55;113132;239;39521;-50
2024/01/11 03:20:39;;;;;;;;;30.75;17.75;;;;;-5.18;87.77;101225.48;113187;239;40133;-51
2024/01/11 03:23:12;;;;;;;;;36.25;22.50;;;;;-5.18;87.82;101230.72;113194;239;39531;-51
2024/01/11 03:25:48;;;;;;;;;30.25;18.75;;;;;-5.20;87.91;101209.05;113259;239;40221;-54
2024/01/11 03:28:24;;;;;;;;;28.00;20.00;;;;;-5.20;88.03;101211.70;113171;239;39074;-55
2024/01/11 03:31:00;;;;;;;;;31.75;20.00;;;;;-5.14;87.94;101211.60;113236;239;40485;-55
2024/01/11 03:33:35;;;;;;;;;32.25;22.25;;;;;-5.11;87.96;101187.77;113226;239;39925;-55
2024/01/11 03:36:15;;;;;;;;;27.00;19.00;;;;;-5.09;87.93;101174.13;113061;239;41662;-49
2024/01/11 03:38:49;;;;;;;;;26.50;19.00;;;;;-5.07;88.12;101158.39;113252;239;39155;-49
2024/01/11 03:41:28;;;;;;;;;32.00;22.00;;;;;-5.03;88.11;101150.67;113164;239;39568;-54
2024/01/11 03:44:08;;;;;;;;;33.00;19.50;;;;;-5.08;88.10;101151.60;113196;239;39340;-55
2024/01/11 03:46:49;;;;;;;;;27.00;18.00;;;;;-5.06;88.17;101144.48;113248;239;39064;-49
2024/01/11 03:49:29;;;;;;;;;30.00;19.50;;;;;-5.07;88.23;101130.84;113252;239;39807;-50
2024/01/11 03:52:07;;;;;;;;;40.50;27.00;;;;;-5.06;88.16;101123.79;113222;239;40379;-51
2024/01/11 03:54:42;;;;;;;;;31.75;20.50;;;;;-5.11;88.22;101128.21;113198;239;39811;-51
2024/01/11 03:57:17;;;;;;;;;37.00;23.75;;;;;-5.16;88.43;101136.72;113225;239;40682;-55
2024/01/11 03:59:54;;;;;;;;;34.00;23.00;;;;;-5.17;88.39;101135.89;113216;239;38913;-55
2024/01/11 04:02:29;;;;;;;;;35.00;21.25;;;;;-5.15;88.54;101128.95;113230;239;39847;-55
2024/01/11 04:05:08;;;;;;;;;34.00;23.25;;;;;-5.18;88.43;101127.15;113203;239;39644;-51
2024/01/11 04:07:43;;;;;;;;;30.00;21.00;;;;;-5.15;88.45;101134.58;113248;239;39323;-50
2024/01/11 04:10:21;;;;;;;;;42.00;29.00;;;;;-5.13;88.45;101134.63;113258;239;39936;-54
2024/01/11 04:12:59;;;;;;;;;32.25;20.25;;;;;-5.21;88.51;101131.69;113191;239;38943;-54
2024/01/11 04:15:33;;;;;;;;;36.75;23.25;;;;;-5.18;88.50;101128.02;113010;239;40338;-54
2024/01/11 04:18:08;;;;;;;;;29.00;21.00;;;;;-5.21;88.51;101126.08;113248;239;39592;-54
2024/01/11 04:20:45;;;;;;;;;44.00;33.00;;;;;-5.22;88.59;101137.02;113302;239;39625;-51
2024/01/11 04:23:26;;;;;;;;;37.00;26.00;;;;;-5.20;88.63;101133.92;113278;239;40698;-51
2024/01/11 04:26:03;;;;;;;;;43.00;29.00;;;;;-5.18;88.50;101135.24;113251;239;40259;-55
2024/01/11 04:28:43;;;;;;;;;40.25;26.00;;;;;-5.19;88.57;101140.17;112967;239;39949;-55
2024/01/11 04:31:22;;;;;;;;;32.50;24.00;;;;;-5.19;88.62;101133.02;113179;239;39048;-53
2024/01/11 04:33:59;;;;;;;;;32.33;23.00;;;;;-5.18;88.66;101138.77;113117;239;40274;-54
2024/01/11 04:36:39;;;;;;;;;37.00;25.00;;;;;-5.13;88.63;101151.31;113136;239;40574;-51
2024/01/11 04:39:15;;;;;;;;;34.33;24.67;;;;;-5.07;88.51;101152.27;112941;240;40304;-51
2024/01/11 04:41:50;;;;;;;;;38.00;26.00;;;;;-5.03;88.56;101144.69;113160;239;39841;-56
2024/01/11 04:44:27;;;;;;;;;37.50;28.00;;;;;-5.01;88.56;101137.21;113121;239;39700;-56
2024/01/11 04:47:04;;;;;;;;;34.00;24.00;;;;;-5.01;88.69;101136.36;113165;239;40574;-51
2024/01/11 04:49:37;;;;;;;;;32.00;23.50;;;;;-4.99;88.67;101134.51;113148;239;40907;-51
2024/01/11 04:52:16;;;;;;;;;36.00;25.00;;;;;-4.99;88.68;101143.96;113144;239;39962;-55
2024/01/11 04:54:54;;;;;;;;;27.25;18.50;;;;;-4.99;88.83;101143.10;113154;239;40911;-56
2024/01/11 04:57:30;;;;;;;;;33.50;24.00;;;;;-5.00;88.85;101137.68;113159;239;39650;-52
2024/01/11 05:00:05;;;;;;;;;34.50;23.25;;;;;-5.00;88.96;101139.46;112985;240;40131;-53
2024/01/11 05:02:40;;;;;;;;;31.25;22.25;;;;;-5.03;89.08;101138.56;113230;239;38866;-56
2024/01/11 05:05:17;;;;;;;;;34.00;23.50;;;;;-4.98;89.11;101137.24;112796;239;476984;-55
2024/01/11 05:07:53;;;;;;;;;41.50;25.25;;;;;-4.97;89.09;101132.11;113172;239;38836;-56
2024/01/11 05:10:33;;;;;;;;;31.50;20.75;;;;;-4.97;89.24;101123.01;113170;239;38949;-51
2024/01/11 05:13:07;;;;;;;;;31.00;22.00;;;;;-4.92;89.29;101118.67;113184;239;39913;-52
2024/01/11 05:15:47;;;;;;;;;32.75;22.50;;;;;-4.92;89.25;101111.70;113196;239;39495;-55
2024/01/11 05:18:26;;;;;;;;;32.00;24.00;;;;;-4.94;89.35;101110.90;113131;239;40082;-55
2024/01/11 05:21:00;;;;;;;;;32.75;24.75;;;;;-4.93;89.36;101108.37;113129;239;39408;-52
2024/01/11 05:23:39;;;;;;;;;38.50;28.25;;;;;-4.86;89.32;101093.80;113120;239;39999;-51
2024/01/11 05:26:19;;;;;;;;;28.00;21.00;;;;;-4.87;89.23;101088.56;113143;239;40019;-50
2024/01/11 05:28:54;;;;;;;;;32.00;22.50;;;;;-4.83;89.21;101087.50;113162;238;40166;-51
2024/01/11 05:31:32;;;;;;;;;27.00;18.00;;;;;-4.82;89.12;101083.27;113125;239;39782;-55
2024/01/11 05:34:08;;;;;;;;;24.67;18.00;;;;;-4.82;89.28;101072.34;113142;239;39355;-55
2024/01/11 05:36:52;;;;;;;;;27.50;20.00;;;;;-4.82;89.27;101071.45;113180;239;39381;-50
2024/01/11 05:39:35;;;;;;;;;39.75;26.75;;;;;-4.76;89.38;101066.81;113122;239;40866;-50
2024/01/11 05:42:10;;;;;;;;;28.67;21.33;;;;;-4.73;89.33;101067.20;113140;239;39883;-51
2024/01/11 05:44:49;;;;;;;;;23.50;17.00;;;;;-4.72;89.30;101063.05;113128;238;41187;-51
2024/01/11 05:47:25;;;;;;;;;23.50;16.00;;;;;-4.72;89.28;101054.64;113174;239;40643;-53
2024/01/11 05:50:00;;;;;;;;;28.25;17.50;;;;;-4.72;89.24;101048.86;113141;239;40122;-52
2024/01/11 05:52:38;;;;;;;;;30.00;21.50;;;;;-4.75;89.33;101051.85;113162;239;39571;-51
2024/01/11 05:55:20;;;;;;;;;33.25;23.50;;;;;-4.79;89.40;101050.96;113200;238;39623;-54
2024/01/11 05:57:55;;;;;;;;;27.00;20.00;;;;;-4.76;89.34;101046.25;113118;239;41048;-51
2024/01/11 06:00:36;;;;;;;;;22.25;15.75;;;;;-4.75;89.35;101044.80;113189;239;39948;-51
2024/01/11 06:03:12;;;;;;;;;29.50;19.00;;;;;-4.71;89.37;101032.78;113130;239;39488;-50
2024/01/11 06:05:48;;;;;;;;;29.00;20.00;;;;;-4.70;89.34;101035.02;113164;238;38904;-55
2024/01/11 06:08:25;;;;;;;;;28.75;19.75;;;;;-4.68;89.38;101023.16;113128;239;40051;-55
2024/01/11 06:11:01;;;;;;;;;28.00;18.50;;;;;-4.69;89.42;101022.34;113149;239;39423;-54
2024/01/11 06:13:37;;;;;;;;;29.00;20.75;;;;;-4.70;89.38;101025.75;113136;239;40087;-54
2024/01/11 06:16:12;;;;;;;;;29.75;20.00;;;;;-4.69;89.38;101024.61;113168;239;39823;-50
2024/01/11 06:18:47;;;;;;;;;32.00;21.00;;;;;-4.67;89.33;101017.48;113109;239;39425;-51
2024/01/11 06:21:23;;;;;;;;;24.67;17.00;;;;;-4.66;89.36;101015.67;113161;239;39799;-55
2024/01/11 06:23:58;;;;;;;;;31.00;21.00;;;;;-4.62;89.40;101019.14;113106;238;39598;-56
2024/01/11 06:26:36;;;;;;;;;27.00;20.25;;;;;-4.62;89.33;101015.28;113121;239;41291;-55
2024/01/11 06:29:14;;;;;;;;;28.50;18.75;;;;;-4.63;89.41;101012.68;113137;239;39648;-55
2024/01/11 06:31:49;;;;;;;;;29.67;18.00;;;;;-4.63;89.35;101010.24;113148;239;40102;-55
2024/01/11 06:34:24;;;;;;;;;19.50;15.00;;;;;-4.64;89.48;101003.81;113151;239;40213;-51
2024/01/11 06:36:59;;;;;;;;;22.25;17.00;;;;;-4.60;89.44;100997.59;113212;239;40074;-54
2024/01/11 06:39:39;;;;;;;;;26.00;16.00;;;;;-4.61;89.52;101002.59;113144;239;39470;-54
2024/01/11 06:42:14;;;;;;;;;28.00;19.00;;;;;-4.58;89.55;101003.86;113150;238;40512;-51
2024/01/11 06:44:56;;;;;;;;;23.00;16.00;;;;;-4.58;89.56;100992.08;113176;239;40028;-51
2024/01/11 06:47:31;;;;;;;;;20.75;13.25;;;;;-4.55;89.55;100992.42;113102;239;39359;-55
2024/01/11 06:50:09;;;;;;;;;23.67;16.00;;;;;-4.56;89.64;100992.31;113150;239;40184;-53
2024/01/11 06:52:50;;;;;;;;;19.67;14.00;;;;;-4.54;89.83;101006.59;113120;239;40854;-53
2024/01/11 06:55:27;;;;;;;;;21.25;16.00;;;;;-4.54;89.90;101003.11;113146;239;39950;-54
2024/01/11 06:58:07;;;;;;;;;16.33;13.00;;;;;-4.52;89.92;101005.79;113199;239;39688;-52
2024/01/11 07:00:44;;;;;;;;;26.00;18.00;;;;;-4.47;89.82;101004.87;113179;239;39926;-52
2024/01/11 07:03:23;;;;;;;;;19.00;14.50;;;;;-4.41;89.85;101000.83;113138;239;39104;-52
2024/01/11 07:05:57;;;;;;;;;17.33;12.67;;;;;-4.45;89.96;100989.95;113129;238;40010;-58
2024/01/11 07:08:36;;;;;;;;;17.00;11.67;;;;;-4.42;90.06;100995.24;113171;239;40860;-56
2024/01/11 07:11:13;;;;;;;;;16.75;12.25;;;;;-4.35;90.01;100998.04;113182;239;40579;-52
2024/01/11 07:13:51;;;;;;;;;22.00;14.00;;;;;-4.29;90.14;100995.45;113205;238;39349;-52
2024/01/11 07:16:27;;;;;;;;;19.00;14.00;;;;;-4.25;90.14;100985.02;113218;239;39598;-53
2024/01/11 07:19:09;;;;;;;;;19.50;14.50;;;;;-4.26;90.29;100974.54;113108;239;40411;-53
2024/01/11 07:21:53;;;;;;;;;18.75;13.25;;;;;-4.23;90.27;100970.84;113121;238;41013;-51
2024/01/11 07:24:37;;;;;;;;;16.75;14.00;;;;;-4.22;90.43;100977.98;113132;239;39106;-51
2024/01/11 07:27:12;;;;;;;;;16.25;12.00;;;;;-4.13;90.45;100980.19;113139;239;40242;-51
2024/01/11 07:29:47;;;;;;;;;13.00;9.00;;;;;-4.10;90.55;100977.73;113110;238;40947;-51
2024/01/11 07:32:22;;;;;;;;;17.50;13.00;;;;;-4.05;90.62;100981.86;113145;239;41453;-56
2024/01/11 07:34:59;;;;;;;;;15.75;11.25;;;;;-3.98;90.73;100981.98;113093;238;39082;-55
2024/01/11 07:37:39;;;;;;;;;17.75;10.25;;;;;-3.90;90.63;100973.80;113150;239;39958;-55
2024/01/11 07:40:23;;;;;;;;;18.00;12.00;;;;;-3.89;90.77;100968.33;113140;239;39311;-52
2024/01/11 07:42:57;;;;;;;;;18.33;12.33;;;;;-3.84;90.78;100973.46;113203;238;40203;-51
2024/01/11 07:45:38;;;;;;;;;19.00;12.00;;;;;-3.83;90.75;100977.84;113184;239;39475;-55
2024/01/11 07:48:20;;;;;;;;;18.25;13.00;;;;;-3.81;90.79;100972.41;113261;239;39028;-55
2024/01/11 07:50:59;;;;;;;;;15.25;11.25;;;;;-3.80;90.83;100980.29;113192;238;38940;-55
2024/01/11 07:53:35;;;;;;;;;21.00;14.00;;;;;-3.76;90.93;100980.96;113157;239;39615;-55
2024/01/11 07:56:11;;;;;;;;;17.75;12.00;;;;;-3.71;90.95;100987.52;113153;238;39140;-51
2024/01/11 07:58:47;;;;;;;;;19.75;15.00;;;;;-3.68;90.97;100994.41;113165;238;39417;-51
2024/01/11 08:01:24;;;;;;;;;17.75;12.00;;;;;-3.68;91.01;100991.42;113130;239;40537;-52
2024/01/11 08:04:05;;;;;;;;;16.33;11.33;;;;;-3.66;91.03;100982.66;113083;239;41891;-52
2024/01/11 08:06:44;;;;;;;;;17.00;11.00;;;;;-3.62;90.98;100989.10;113142;239;39861;-51
2024/01/11 08:09:22;;;;;;;;;18.00;11.25;;;;;-3.56;91.06;100992.50;113095;239;40424;-52
2024/01/11 08:11:58;;;;;;;;;20.00;13.33;;;;;-3.54;91.25;100985.32;113141;238;39685;-52
2024/01/11 08:14:33;;;;;;;;;19.00;12.00;;;;;-3.51;91.15;100990.44;113170;239;40193;-51
2024/01/11 08:17:09;;;;;;;;;24.00;17.00;;;;;-3.50;91.21;100986.00;113159;239;40505;-51
2024/01/11 08:19:51;;;;;;;;;17.25;10.25;;;;;-3.44;91.21;100987.79;113133;239;39945;-51
2024/01/11 08:22:33;;;;;;;;;16.50;10.25;;;;;-3.46;91.28;100986.83;113174;239;39847;-55
2024/01/11 08:25:09;;;;;;;;;18.00;11.00;;;;;-3.43;91.31;100988.58;113149;239;41536;-55
2024/01/11 08:27:46;;;;;;;;;20.00;12.25;;;;;-3.39;91.55;100987.48;113161;238;39503;-56
2024/01/11 08:30:25;;;;;;;;;17.00;10.00;;;;;-3.34;91.53;100997.59;113182;239;39521;-52
2024/01/11 08:33:01;;;;;;;;;18.00;9.50;;;;;-3.35;91.77;100984.98;113140;239;39406;-51
2024/01/11 08:35:42;;;;;;;;;24.00;15.00;;;;;-3.30;91.68;100992.25;113128;239;39849;-56
2024/01/11 08:38:19;;;;;;;;;19.00;12.50;;;;;-3.26;91.66;100992.89;113125;238;39227;-56
2024/01/11 08:40:55;;;;;;;;;15.00;11.00;;;;;-3.25;91.68;100994.23;113091;239;39756;-55
2024/01/11 08:43:39;;;;;;;;;19.00;13.50;;;;;-3.24;91.76;100992.05;113106;239;39840;-55
2024/01/11 08:46:25;;;;;;;;;16.75;11.50;;;;;-3.25;91.88;100995.25;113178;239;39970;-51
2024/01/11 08:49:04;;;;;;;;;19.67;12.00;;;;;-3.19;91.80;100988.39;113138;239;39862;-52
2024/01/11 08:51:39;;;;;;;;;23.00;13.50;;;;;-3.16;91.84;100983.84;113209;239;40568;-55
2024/01/11 08:54:22;;;;;;;;;20.75;12.50;;;;;-3.16;91.88;100984.59;113134;239;39040;-55
2024/01/11 08:57:03;;;;;;;;;16.50;11.25;;;;;-3.11;91.93;100985.84;113167;238;41059;-51
2024/01/11 08:59:38;;;;;;;;;26.00;17.00;;;;;-3.05;91.91;100987.10;113193;239;39812;-52
2024/01/11 09:02:17;;;;;;;;;19.00;12.00;;;;;-2.99;91.90;100982.13;113184;239;39054;-54
2024/01/11 09:04:55;;;;;;;;;14.25;10.50;;;;;-2.93;91.94;100979.89;113173;239;39417;-54
2024/01/11 09:07:32;;;;;;;;;16.50;9.75;;;;;-2.89;92.03;100976.14;113130;239;39539;-55
2024/01/11 09:10:16;;;;;;;;;16.00;12.00;;;;;-2.92;92.01;100977.00;113139;238;39714;-52
2024/01/11 09:12:59;;;;;;;;;20.00;13.00;;;;;-2.87;92.14;100971.94;113143;239;40529;-55
2024/01/11 09:15:34;;;;;;;;;18.00;12.00;;;;;-2.79;92.23;100963.89;113119;239;41004;-51
2024/01/11 09:18:11;;;;;;;;;19.00;13.75;;;;;-2.73;92.19;100965.65;113090;239;39753;-51
2024/01/11 09:20:48;;;;;;;;;16.50;11.00;;;;;-2.73;92.26;100964.73;113154;239;40974;-55
2024/01/11 09:23:30;;;;;;;;;12.75;8.75;;;;;-2.64;92.30;100965.10;113158;239;41232;-55
2024/01/11 09:26:06;;;;;;;;;15.50;8.75;;;;;-2.63;92.21;100957.60;113092;239;40284;-55
2024/01/11 09:28:43;;;;;;;;;13.75;8.25;;;;;-2.55;92.46;100951.83;113176;239;39382;-54
2024/01/11 09:31:17;;;;;;;;;19.00;14.00;;;;;-2.46;92.42;100947.76;113163;239;40533;-55
2024/01/11 09:33:57;;;;;;;;;17.25;13.00;;;;;-2.44;92.41;100943.77;113152;239;39398;-55
2024/01/11 09:36:39;;;;;;;;;19.25;12.75;;;;;-2.33;92.51;100940.48;113157;239;39039;-54
2024/01/11 09:39:17;;;;;;;;;22.67;14.33;;;;;-2.20;92.41;100931.67;113088;239;39207;-55
2024/01/11 09:42:04;;;;;;;;;19.00;14.00;;;;;-2.17;92.17;100937.45;113114;239;39329;-55
2024/01/11 09:44:39;;;;;;;;;19.00;12.00;;;;;-2.17;92.06;100928.13;113110;239;40046;-55
2024/01/11 09:47:17;;;;;;;;;18.25;13.00;;;;;-2.11;92.05;100919.64;113159;239;41059;-55
2024/01/11 09:49:59;;;;;;;;;16.00;12.00;;;;;-2.10;91.86;100923.66;113108;239;39529;-55
2024/01/11 09:52:38;;;;;;;;;13.33;11.00;;;;;-2.09;91.86;100909.65;113059;239;40859;-53
2024/01/11 09:55:14;;;;;;;;;18.75;13.00;;;;;-2.07;91.90;100905.98;113094;239;38925;-52
2024/01/11 09:57:54;;;;;;;;;22.00;14.00;;;;;-2.09;91.83;100908.73;113095;239;39412;-52
2024/01/11 10:00:30;;;;;;;;;14.75;12.00;;;;;-2.13;91.93;100901.41;113137;239;40722;-55
2024/01/11 10:03:04;;;;;;;;;19.00;13.67;;;;;-2.14;91.91;100902.05;113149;238;39609;-54
2024/01/11 10:05:42;;;;;;;;;18.00;13.00;;;;;-2.16;91.95;100898.93;113171;239;40666;-56
2024/01/11 10:08:18;;;;;;;;;23.00;16.00;;;;;-2.11;91.91;100895.79;113138;239;39721;-56
2024/01/11 10:10:52;;;;;;;;;14.00;10.50;;;;;-2.09;91.91;100889.88;113201;239;39074;-51
2024/01/11 10:13:32;;;;;;;;;16.00;12.25;;;;;-2.09;91.82;100891.28;113183;239;38996;-51
2024/01/11 10:16:15;;;;;;;;;19.67;13.67;;;;;-2.09;91.92;100897.26;113141;239;39695;-54
2024/01/11 10:18:54;;;;;;;;;15.00;9.00;;;;;-2.05;92.00;100897.20;113101;239;40816;-54
2024/01/11 10:21:30;;;;;;;;;13.00;9.00;;;;;-2.05;92.10;100899.52;113136;238;39254;-54
2024/01/11 10:24:07;;;;;;;;;16.00;11.00;;;;;-2.10;92.17;100903.33;113181;239;39836;-54
2024/01/11 10:26:44;;;;;;;;;16.33;10.00;;;;;-2.12;92.13;100905.40;113153;238;39202;-55
2024/01/11 10:29:22;;;;;;;;;19.00;12.00;;;;;-2.16;92.25;100899.17;113099;238;39655;-55
2024/01/11 10:31:59;;;;;;;;;19.75;12.00;;;;;-2.16;92.28;100895.95;113111;238;41765;-56
2024/01/11 10:34:33;;;;;;;;;23.00;15.00;;;;;-2.17;92.46;100903.28;113128;239;40550;-56
2024/01/11 10:37:10;;;;;;;;;20.50;13.50;;;;;-2.09;92.63;100895.36;113133;239;40607;-56
2024/01/11 10:39:57;;;;;;;;;19.25;15.75;;;;;-2.00;92.54;100888.05;113145;239;39654;-55
2024/01/11 10:42:41;;;;;;;;;18.00;11.75;;;;;-1.94;92.56;100890.10;113150;238;40108;-51
2024/01/11 10:45:19;;;;;;;;;20.00;11.00;;;;;-1.91;92.64;100881.27;113192;239;39742;-51
2024/01/11 10:48:04;;;;;;;;;14.50;10.25;;;;;-1.83;92.78;100879.55;113191;239;39081;-50
2024/01/11 10:50:43;;;;;;;;;19.00;13.00;;;;;-1.78;92.73;100885.91;113150;239;39572;-55
2024/01/11 10:53:33;;;;;;;;;13.25;10.75;;;;;-1.74;92.81;100879.48;113159;238;40600;-55
2024/01/11 10:56:11;;;;;;;;;14.00;9.25;;;;;-1.62;92.91;100876.42;113147;239;39709;-55
2024/01/11 10:58:47;;;;;;;;;20.75;13.00;;;;;-1.61;92.92;100871.76;113162;238;39647;-56
2024/01/11 11:01:27;;;;;;;;;19.75;15.00;;;;;-1.67;93.25;100866.48;113199;239;39490;-54
2024/01/11 11:04:04;;;;;;;;;27.00;14.00;;;;;-1.63;93.11;100858.80;113139;239;40235;-55
2024/01/11 11:06:44;;;;;;;;;19.75;12.75;;;;;-1.59;93.26;100852.91;113155;239;40223;-51
2024/01/11 11:09:22;;;;;;;;;19.00;11.75;;;;;-1.52;93.25;100853.48;113116;238;39329;-52
2024/01/11 11:12:07;;;;;;;;;22.75;14.00;;;;;-1.46;93.27;100844.06;113149;239;39381;-51
2024/01/11 11:14:41;;;;;;;;;20.00;13.00;;;;;-1.48;93.48;100835.90;113143;239;41222;-51
2024/01/11 11:17:18;;;;;;;;;14.00;9.75;;;;;-1.43;93.36;100835.91;113169;239;39842;-54
2024/01/11 11:19:57;;;;;;;;;16.75;13.00;;;;;-1.40;93.38;100836.98;113159;239;39926;-55
2024/01/11 11:22:38;;;;;;;;;21.67;15.00;;;;;-1.40;93.40;100840.11;113183;238;39022;-51
2024/01/11 11:25:25;;;;;;;;;25.50;16.75;;;;;-1.41;93.35;100838.21;113175;239;39934;-51
2024/01/11 11:28:04;;;;;;;;;21.75;13.50;;;;;-1.34;93.41;100835.65;113104;239;40337;-51
2024/01/11 11:30:49;;;;;;;;;21.33;15.33;;;;;-1.29;93.42;100833.17;113179;239;40861;-52
2024/01/11 11:33:25;;;;;;;;;17.00;13.00;;;;;-1.29;93.51;100827.50;113127;239;39430;-51
2024/01/11 11:36:04;;;;;;;;;22.00;15.00;;;;;-1.22;93.46;100821.40;113163;238;40874;-54
2024/01/11 11:38:45;;;;;;;;;20.00;13.00;;;;;-1.18;93.39;100813.16;113118;238;39640;-55
2024/01/11 11:41:24;;;;;;;;;20.25;13.00;;;;;-1.15;93.51;100809.09;113164;239;39826;-56
2024/01/11 11:44:04;;;;;;;;;20.75;14.25;;;;;-1.10;93.44;100812.27;113119;239;40554;-56
2024/01/11 11:46:46;;;;;;;;;18.00;13.00;;;;;-1.06;93.46;100815.90;113194;239;39071;-55
2024/01/11 11:49:51;;;;;;;;;26.00;17.00;;;;;-1.04;93.32;100804.81;112987;239;41645;-56
2024/01/11 11:52:30;;;;;;;;;22.25;16.00;;;;;-1.01;93.36;100806.34;113229;239;40865;-51
2024/01/11 11:55:07;;;;;;;;;28.75;19.25;;;;;-1.03;93.29;100806.63;113173;238;39771;-56
2024/01/11 11:57:44;;;;;;;;;38.00;25.00;;;;;-0.96;93.32;100810.77;113176;239;39581;-56